sensor_id;sensor_type;location;lat;lon;timestamp;pressure;altitude;pressure_sealevel;temperature;humidity
44663;BME280;30381;52.754;18.258;2023-04-04T00:04:59;101928.60;;;-0.74;92.70
44663;BME280;30381;52.754;18.258;2023-04-04T00:23:16;101910.61;;;-0.95;93.78
44663;BME280;30381;52.754;18.258;2023-04-04T00:42:31;101892.70;;;-0.87;94.44
44663;BME280;30381;52.754;18.258;2023-04-04T01:03:11;101893.37;;;-0.86;95.04
44663;BME280;30381;52.754;18.258;2023-04-04T01:32:04;101855.20;;;-0.80;95.44
44663;BME280;30381;52.754;18.258;2023-04-04T01:47:26;101846.55;;;-0.85;95.62
44663;BME280;30381;52.754;18.258;2023-04-04T01:51:09;101849.16;;;-0.87;95.86
44663;BME280;30381;52.754;18.258;2023-04-04T02:06:42;101839.21;;;-0.90;95.72
44663;BME280;30381;52.754;18.258;2023-04-04T02:09:57;101837.75;;;-0.90;95.89
44663;BME280;30381;52.754;18.258;2023-04-04T02:19:34;101832.80;;;-0.90;96.02
44663;BME280;30381;52.754;18.258;2023-04-04T02:43:17;101812.79;;;-0.90;96.41
44663;BME280;30381;52.754;18.258;2023-04-04T02:47:06;101818.24;;;-0.88;96.49
44663;BME280;30381;52.754;18.258;2023-04-04T02:59:22;101818.35;;;-0.76;96.47
44663;BME280;30381;52.754;18.258;2023-04-04T03:02:55;101812.70;;;-0.75;96.36
44663;BME280;30381;52.754;18.258;2023-04-04T03:05:59;101807.56;;;-0.73;96.23
44663;BME280;30381;52.754;18.258;2023-04-04T03:17:11;101813.05;;;-0.65;95.43
44663;BME280;30381;52.754;18.258;2023-04-04T03:26:38;101808.44;;;-0.61;94.90
44663;BME280;30381;52.754;18.258;2023-04-04T03:29:32;101803.62;;;-0.60;94.84
44663;BME280;30381;52.754;18.258;2023-04-04T03:33:15;101797.05;;;-0.60;94.66
44663;BME280;30381;52.754;18.258;2023-04-04T03:36:54;101800.66;;;-0.61;94.13
44663;BME280;30381;52.754;18.258;2023-04-04T03:40:21;101792.12;;;-0.60;93.46
44663;BME280;30381;52.754;18.258;2023-04-04T03:43:49;101787.80;;;-0.60;92.95
44663;BME280;30381;52.754;18.258;2023-04-04T03:58:48;101787.39;;;-0.53;92.60
44663;BME280;30381;52.754;18.258;2023-04-04T04:10:31;101787.56;;;-0.49;93.28
44663;BME280;30381;52.754;18.258;2023-04-04T04:25:26;101788.10;;;-0.49;93.68
44663;BME280;30381;52.754;18.258;2023-04-04T04:40:07;101785.61;;;-0.41;91.64
44663;BME280;30381;52.754;18.258;2023-04-04T04:54:48;101789.06;;;-0.30;89.66
44663;BME280;30381;52.754;18.258;2023-04-04T05:10:10;101796.06;;;-0.12;90.11
44663;BME280;30381;52.754;18.258;2023-04-04T05:35:48;101802.49;;;0.38;87.65
44663;BME280;30381;52.754;18.258;2023-04-04T05:50:25;101796.50;;;0.64;85.38
44663;BME280;30381;52.754;18.258;2023-04-04T05:59:15;101792.98;;;0.82;85.84
44663;BME280;30381;52.754;18.258;2023-04-04T06:30:35;101797.01;;;1.39;84.35
44663;BME280;30381;52.754;18.258;2023-04-04T06:33:25;101794.10;;;1.43;82.75
44663;BME280;30381;52.754;18.258;2023-04-04T07:04:23;101787.65;;;1.62;80.54
44663;BME280;30381;52.754;18.258;2023-04-04T07:08:08;101783.94;;;1.61;79.39
44663;BME280;30381;52.754;18.258;2023-04-04T07:19:45;101783.23;;;1.69;79.06
44663;BME280;30381;52.754;18.258;2023-04-04T07:42:46;101786.52;;;2.00;80.93
44663;BME280;30381;52.754;18.258;2023-04-04T08:02:58;101764.09;;;3.21;81.87
44663;BME280;30381;52.754;18.258;2023-04-04T08:06:37;101760.98;;;3.14;81.51
44663;BME280;30381;52.754;18.258;2023-04-04T08:17:51;101754.19;;;3.03;81.21
44663;BME280;30381;52.754;18.258;2023-04-04T08:26:41;101754.12;;;3.08;79.91
44663;BME280;30381;52.754;18.258;2023-04-04T08:33:01;101755.48;;;3.25;78.01
44663;BME280;30381;52.754;18.258;2023-04-04T08:39:03;101749.65;;;3.43;77.83
44663;BME280;30381;52.754;18.258;2023-04-04T08:46:01;101746.05;;;3.88;77.53
44663;BME280;30381;52.754;18.258;2023-04-04T08:55:47;101739.11;;;4.17;76.87
44663;BME280;30381;52.754;18.258;2023-04-04T09:29:40;101738.63;;;4.89;72.32
44663;BME280;30381;52.754;18.258;2023-04-04T09:43:38;101741.96;;;4.66;72.98
44663;BME280;30381;52.754;18.258;2023-04-04T09:46:27;101743.14;;;4.92;72.79
44663;BME280;30381;52.754;18.258;2023-04-04T09:58:32;101736.48;;;5.78;69.97
44663;BME280;30381;52.754;18.258;2023-04-04T10:01:56;101731.77;;;5.95;70.31
44663;BME280;30381;52.754;18.258;2023-04-04T10:32:15;101690.26;;;6.92;67.87
44663;BME280;30381;52.754;18.258;2023-04-04T10:43:59;101691.70;;;6.62;66.13
44663;BME280;30381;52.754;18.258;2023-04-04T10:47:47;101696.73;;;6.69;66.19
44663;BME280;30381;52.754;18.258;2023-04-04T11:42:09;101663.80;;;6.47;62.35
44663;BME280;30381;52.754;18.258;2023-04-04T11:56:45;101648.63;;;6.51;64.78
44663;BME280;30381;52.754;18.258;2023-04-04T12:12:05;101637.73;;;6.95;64.76
44663;BME280;30381;52.754;18.258;2023-04-04T12:24:07;101623.23;;;6.51;65.04
44663;BME280;30381;52.754;18.258;2023-04-04T12:26:40;101620.48;;;6.51;64.51
44663;BME280;30381;52.754;18.258;2023-04-04T12:37:16;101606.98;;;7.04;64.99
44663;BME280;30381;52.754;18.258;2023-04-04T12:40:36;101603.11;;;7.16;64.37
44663;BME280;30381;52.754;18.258;2023-04-04T12:52:19;101591.02;;;7.09;64.05
44663;BME280;30381;52.754;18.258;2023-04-04T13:32:17;101554.60;;;6.66;61.71
44663;BME280;30381;52.754;18.258;2023-04-04T13:36:22;101552.07;;;6.86;62.99
44663;BME280;30381;52.754;18.258;2023-04-04T13:41:53;101548.90;;;7.16;62.58
44663;BME280;30381;52.754;18.258;2023-04-04T13:47:34;101537.91;;;7.14;62.43
44663;BME280;30381;52.754;18.258;2023-04-04T13:50:11;101533.09;;;7.17;62.64
44663;BME280;30381;52.754;18.258;2023-04-04T13:56:07;101531.79;;;7.13;62.86
44663;BME280;30381;52.754;18.258;2023-04-04T13:59:18;101535.20;;;7.08;62.19
44663;BME280;30381;52.754;18.258;2023-04-04T14:01:44;101535.75;;;7.13;62.61
44663;BME280;30381;52.754;18.258;2023-04-04T14:04:11;101533.44;;;7.09;61.22
44663;BME280;30381;52.754;18.258;2023-04-04T14:06:37;101526.86;;;7.01;61.58
44663;BME280;30381;52.754;18.258;2023-04-04T14:09:03;101526.18;;;6.97;61.19
44663;BME280;30381;52.754;18.258;2023-04-04T14:11:29;101530.42;;;6.84;61.15
44663;BME280;30381;52.754;18.258;2023-04-04T14:13:58;101526.84;;;6.71;61.44
44663;BME280;30381;52.754;18.258;2023-04-04T14:16:24;101531.14;;;6.55;61.22
44663;BME280;30381;52.754;18.258;2023-04-04T14:18:50;101524.56;;;6.44;62.52
44663;BME280;30381;52.754;18.258;2023-04-04T14:21:17;101531.44;;;6.45;62.92
44663;BME280;30381;52.754;18.258;2023-04-04T14:23:44;101524.20;;;6.42;63.11
44663;BME280;30381;52.754;18.258;2023-04-04T14:26:10;101516.13;;;6.32;63.63
44663;BME280;30381;52.754;18.258;2023-04-04T14:28:36;101515.23;;;6.30;64.10
44663;BME280;30381;52.754;18.258;2023-04-04T14:31:04;101506.45;;;6.25;64.50
44663;BME280;30381;52.754;18.258;2023-04-04T14:33:31;101502.95;;;6.00;64.18
44663;BME280;30381;52.754;18.258;2023-04-04T14:35:58;101504.44;;;5.70;64.16
44663;BME280;30381;52.754;18.258;2023-04-04T14:38:24;101505.30;;;5.54;64.88
44663;BME280;30381;52.754;18.258;2023-04-04T14:40:51;101501.69;;;5.47;65.20
44663;BME280;30381;52.754;18.258;2023-04-04T14:43:19;101499.33;;;5.42;64.86
44663;BME280;30381;52.754;18.258;2023-04-04T14:45:45;101500.25;;;5.43;65.14
44663;BME280;30381;52.754;18.258;2023-04-04T14:51:09;101487.94;;;5.64;64.99
44663;BME280;30381;52.754;18.258;2023-04-04T14:53:52;101486.23;;;5.80;65.29
44663;BME280;30381;52.754;18.258;2023-04-04T14:56:32;101484.83;;;6.00;65.48
44663;BME280;30381;52.754;18.258;2023-04-04T14:59:27;101478.02;;;6.15;65.49
44663;BME280;30381;52.754;18.258;2023-04-04T15:01:56;101472.97;;;6.24;64.55
44663;BME280;30381;52.754;18.258;2023-04-04T15:08:53;101471.44;;;6.47;64.08
44663;BME280;30381;52.754;18.258;2023-04-04T15:11:45;101468.61;;;6.64;64.06
44663;BME280;30381;52.754;18.258;2023-04-04T15:14:22;101466.38;;;6.74;62.88
44663;BME280;30381;52.754;18.258;2023-04-04T15:16:57;101463.52;;;6.76;62.74
44663;BME280;30381;52.754;18.258;2023-04-04T15:19:48;101468.13;;;6.79;63.06
44663;BME280;30381;52.754;18.258;2023-04-04T15:22:37;101465.19;;;6.76;63.01
44663;BME280;30381;52.754;18.258;2023-04-04T15:25:15;101465.09;;;6.67;63.29
44663;BME280;30381;52.754;18.258;2023-04-04T15:28:04;101463.67;;;6.58;63.15
44663;BME280;30381;52.754;18.258;2023-04-04T15:30:30;101458.34;;;6.50;63.44
44663;BME280;30381;52.754;18.258;2023-04-04T15:34:15;101453.84;;;6.44;63.25
44663;BME280;30381;52.754;18.258;2023-04-04T15:37:07;101456.96;;;6.29;62.94
44663;BME280;30381;52.754;18.258;2023-04-04T15:40:29;101451.31;;;6.20;62.96
44663;BME280;30381;52.754;18.258;2023-04-04T15:47:44;101440.73;;;5.85;62.02
44663;BME280;30381;52.754;18.258;2023-04-04T15:50:57;101439.61;;;5.68;62.68
44663;BME280;30381;52.754;18.258;2023-04-04T16:00:35;101446.15;;;5.53;63.56
44663;BME280;30381;52.754;18.258;2023-04-04T16:34:37;101445.80;;;5.10;63.48
44663;BME280;30381;52.754;18.258;2023-04-04T16:37:03;101441.33;;;4.97;63.98
44663;BME280;30381;52.754;18.258;2023-04-04T16:39:34;101440.11;;;4.79;63.85
44663;BME280;30381;52.754;18.258;2023-04-04T16:42:37;101446.17;;;4.64;64.27
44663;BME280;30381;52.754;18.258;2023-04-04T16:45:17;101451.35;;;4.51;64.42
44663;BME280;30381;52.754;18.258;2023-04-04T16:47:55;101451.72;;;4.40;64.66
44663;BME280;30381;52.754;18.258;2023-04-04T16:50:22;101446.92;;;4.30;64.80
44663;BME280;30381;52.754;18.258;2023-04-04T16:52:51;101449.88;;;4.21;64.95
44663;BME280;30381;52.754;18.258;2023-04-04T16:55:17;101450.59;;;4.14;65.18
44663;BME280;30381;52.754;18.258;2023-04-04T16:57:48;101447.83;;;4.08;65.30
44663;BME280;30381;52.754;18.258;2023-04-04T17:00:15;101447.05;;;4.04;65.60
44663;BME280;30381;52.754;18.258;2023-04-04T17:02:45;101451.88;;;4.01;65.70
44663;BME280;30381;52.754;18.258;2023-04-04T17:05:37;101447.21;;;3.97;66.03
44663;BME280;30381;52.754;18.258;2023-04-04T17:08:37;101449.26;;;3.93;66.00
44663;BME280;30381;52.754;18.258;2023-04-04T17:11:09;101447.70;;;3.89;66.08
44663;BME280;30381;52.754;18.258;2023-04-04T17:13:38;101445.23;;;3.84;66.51
44663;BME280;30381;52.754;18.258;2023-04-04T17:16:11;101447.14;;;3.78;66.37
44663;BME280;30381;52.754;18.258;2023-04-04T17:18:57;101447.39;;;3.71;66.74
44663;BME280;30381;52.754;18.258;2023-04-04T17:21:51;101443.23;;;3.60;66.84
44663;BME280;30381;52.754;18.258;2023-04-04T17:25:03;101441.52;;;3.47;66.85
44663;BME280;30381;52.754;18.258;2023-04-04T17:27:57;101442.27;;;3.37;67.15
44663;BME280;30381;52.754;18.258;2023-04-04T17:30:42;101442.28;;;3.29;68.20
44663;BME280;30381;52.754;18.258;2023-04-04T17:36:26;101448.38;;;3.16;68.59
44663;BME280;30381;52.754;18.258;2023-04-04T17:39:21;101453.65;;;3.14;68.73
44663;BME280;30381;52.754;18.258;2023-04-04T18:21:09;101490.02;;;3.10;71.89
44663;BME280;30381;52.754;18.258;2023-04-04T18:24:18;101489.63;;;2.89;71.97
44663;BME280;30381;52.754;18.258;2023-04-04T18:27:34;101492.27;;;2.68;72.26
44663;BME280;30381;52.754;18.258;2023-04-04T18:30:55;101490.07;;;2.47;72.83
44663;BME280;30381;52.754;18.258;2023-04-04T18:37:52;101496.61;;;2.07;73.67
44663;BME280;30381;52.754;18.258;2023-04-04T18:41:11;101502.87;;;1.90;74.07
44663;BME280;30381;52.754;18.258;2023-04-04T18:44:10;101505.02;;;1.74;74.45
44663;BME280;30381;52.754;18.258;2023-04-04T18:46:56;101505.52;;;1.60;74.91
44663;BME280;30381;52.754;18.258;2023-04-04T18:49:31;101508.80;;;1.47;75.29
44663;BME280;30381;52.754;18.258;2023-04-04T18:52:04;101505.95;;;1.37;75.54
44663;BME280;30381;52.754;18.258;2023-04-04T18:54:33;101506.09;;;1.27;75.83
44663;BME280;30381;52.754;18.258;2023-04-04T18:57:16;101504.09;;;1.17;76.19
44663;BME280;30381;52.754;18.258;2023-04-04T20:24:25;101528.77;;;-0.72;84.13
44663;BME280;30381;52.754;18.258;2023-04-04T20:26:57;101525.67;;;-0.78;84.20
44663;BME280;30381;52.754;18.258;2023-04-04T20:29:33;101522.59;;;-0.84;84.34
44663;BME280;30381;52.754;18.258;2023-04-04T20:32:07;101522.82;;;-0.90;84.41
44663;BME280;30381;52.754;18.258;2023-04-04T20:34:42;101523.91;;;-0.96;84.53
44663;BME280;30381;52.754;18.258;2023-04-04T20:37:17;101526.30;;;-1.02;84.63
44663;BME280;30381;52.754;18.258;2023-04-04T20:39:57;101523.73;;;-1.08;85.08
44663;BME280;30381;52.754;18.258;2023-04-04T20:45:11;101522.02;;;-1.14;85.41
44663;BME280;30381;52.754;18.258;2023-04-04T20:52:52;101524.10;;;-1.29;85.86
44663;BME280;30381;52.754;18.258;2023-04-04T20:55:24;101523.50;;;-1.35;85.80
44663;BME280;30381;52.754;18.258;2023-04-04T20:58:08;101517.02;;;-1.41;85.95
44663;BME280;30381;52.754;18.258;2023-04-04T21:00:42;101516.58;;;-1.48;86.18
44663;BME280;30381;52.754;18.258;2023-04-04T21:05:58;101512.83;;;-1.61;86.22
44663;BME280;30381;52.754;18.258;2023-04-04T21:08:35;101513.64;;;-1.68;86.40
44663;BME280;30381;52.754;18.258;2023-04-04T21:11:03;101513.65;;;-1.75;86.71
44663;BME280;30381;52.754;18.258;2023-04-04T21:13:41;101516.29;;;-1.80;86.93
44663;BME280;30381;52.754;18.258;2023-04-04T21:16:12;101519.14;;;-1.87;87.04
44663;BME280;30381;52.754;18.258;2023-04-04T21:18:55;101519.20;;;-1.93;87.20
44663;BME280;30381;52.754;18.258;2023-04-04T21:21:25;101521.33;;;-1.97;87.47
44663;BME280;30381;52.754;18.258;2023-04-04T21:23:57;101520.27;;;-2.01;87.67
44663;BME280;30381;52.754;18.258;2023-04-04T21:26:36;101520.15;;;-2.06;87.95
44663;BME280;30381;52.754;18.258;2023-04-04T21:29:23;101521.58;;;-2.10;88.05
44663;BME280;30381;52.754;18.258;2023-04-04T21:31:51;101523.13;;;-2.16;88.17
44663;BME280;30381;52.754;18.258;2023-04-04T21:34:27;101520.92;;;-2.21;88.33
44663;BME280;30381;52.754;18.258;2023-04-04T21:36:59;101524.70;;;-2.24;88.66
44663;BME280;30381;52.754;18.258;2023-04-04T21:39:30;101519.94;;;-2.26;89.00
44663;BME280;30381;52.754;18.258;2023-04-04T21:42:11;101518.36;;;-2.26;89.05
44663;BME280;30381;52.754;18.258;2023-04-04T21:44:38;101513.20;;;-2.26;89.18
44663;BME280;30381;52.754;18.258;2023-04-04T21:47:15;101519.77;;;-2.24;89.49
44663;BME280;30381;52.754;18.258;2023-04-04T21:49:44;101519.28;;;-2.23;89.67
44663;BME280;30381;52.754;18.258;2023-04-04T21:52:27;101516.34;;;-2.21;89.93
44663;BME280;30381;52.754;18.258;2023-04-04T21:54:54;101516.56;;;-2.20;90.12
44663;BME280;30381;52.754;18.258;2023-04-04T21:57:21;101516.33;;;-2.17;90.33
44663;BME280;30381;52.754;18.258;2023-04-04T21:59:50;101509.98;;;-2.15;90.51
44663;BME280;30381;52.754;18.258;2023-04-04T22:02:19;101505.40;;;-2.13;90.40
44663;BME280;30381;52.754;18.258;2023-04-04T22:04:48;101507.27;;;-2.12;90.52
44663;BME280;30381;52.754;18.258;2023-04-04T22:07:17;101507.23;;;-2.13;90.72
44663;BME280;30381;52.754;18.258;2023-04-04T22:09:43;101507.02;;;-2.15;90.92
44663;BME280;30381;52.754;18.258;2023-04-04T22:12:17;101506.91;;;-2.19;90.98
44663;BME280;30381;52.754;18.258;2023-04-04T22:14:45;101501.39;;;-2.24;90.85
44663;BME280;30381;52.754;18.258;2023-04-04T22:17:16;101497.46;;;-2.30;90.68
44663;BME280;30381;52.754;18.258;2023-04-04T22:19:54;101497.29;;;-2.34;91.02
44663;BME280;30381;52.754;18.258;2023-04-04T22:23:03;101502.52;;;-2.39;91.23
44663;BME280;30381;52.754;18.258;2023-04-04T22:26:05;101504.73;;;-2.42;91.51
44663;BME280;30381;52.754;18.258;2023-04-04T22:28:34;101504.68;;;-2.44;91.61
44663;BME280;30381;52.754;18.258;2023-04-04T22:31:13;101500.61;;;-2.45;91.77
44663;BME280;30381;52.754;18.258;2023-04-04T22:33:41;101501.54;;;-2.48;91.40
44663;BME280;30381;52.754;18.258;2023-04-04T22:36:11;101498.55;;;-2.52;91.54
44663;BME280;30381;52.754;18.258;2023-04-04T22:38:37;101492.54;;;-2.56;91.66
44663;BME280;30381;52.754;18.258;2023-04-04T22:41:11;101492.89;;;-2.61;91.76
44663;BME280;30381;52.754;18.258;2023-04-04T22:43:47;101492.31;;;-2.66;91.66
44663;BME280;30381;52.754;18.258;2023-04-04T22:46:15;101490.52;;;-2.70;92.01
44663;BME280;30381;52.754;18.258;2023-04-04T22:48:46;101487.49;;;-2.74;92.25
44663;BME280;30381;52.754;18.258;2023-04-04T22:51:14;101489.07;;;-2.76;92.13
44663;BME280;30381;52.754;18.258;2023-04-04T22:53:42;101488.35;;;-2.78;92.23
44663;BME280;30381;52.754;18.258;2023-04-04T22:56:15;101487.28;;;-2.80;92.45
44663;BME280;30381;52.754;18.258;2023-04-04T22:58:41;101485.03;;;-2.82;92.30
44663;BME280;30381;52.754;18.258;2023-04-04T23:01:09;101483.88;;;-2.85;92.67
44663;BME280;30381;52.754;18.258;2023-04-04T23:03:35;101481.61;;;-2.88;92.84
44663;BME280;30381;52.754;18.258;2023-04-04T23:06:02;101479.79;;;-2.91;92.47
44663;BME280;30381;52.754;18.258;2023-04-04T23:08:29;101476.73;;;-2.95;92.53
44663;BME280;30381;52.754;18.258;2023-04-04T23:10:55;101476.83;;;-2.98;93.08
44663;BME280;30381;52.754;18.258;2023-04-04T23:13:28;101481.95;;;-3.00;93.06
44663;BME280;30381;52.754;18.258;2023-04-04T23:15:59;101480.78;;;-3.03;93.43
44663;BME280;30381;52.754;18.258;2023-04-04T23:18:35;101481.78;;;-3.07;93.44
44663;BME280;30381;52.754;18.258;2023-04-04T23:21:01;101478.73;;;-3.10;93.65
44663;BME280;30381;52.754;18.258;2023-04-04T23:23:29;101477.44;;;-3.14;93.57
44663;BME280;30381;52.754;18.258;2023-04-04T23:25:59;101478.54;;;-3.16;93.49
44663;BME280;30381;52.754;18.258;2023-04-04T23:28:28;101478.55;;;-3.21;93.88
44663;BME280;30381;52.754;18.258;2023-04-04T23:30:57;101475.75;;;-3.25;94.04
44663;BME280;30381;52.754;18.258;2023-04-04T23:33:44;101475.95;;;-3.30;93.99
44663;BME280;30381;52.754;18.258;2023-04-04T23:36:20;101474.12;;;-3.37;93.86
44663;BME280;30381;52.754;18.258;2023-04-04T23:38:47;101473.67;;;-3.43;94.20
44663;BME280;30381;52.754;18.258;2023-04-04T23:41:22;101472.08;;;-3.49;94.14
44663;BME280;30381;52.754;18.258;2023-04-04T23:43:51;101471.48;;;-3.55;94.20
44663;BME280;30381;52.754;18.258;2023-04-04T23:46:19;101470.35;;;-3.60;94.46
44663;BME280;30381;52.754;18.258;2023-04-04T23:48:46;101469.82;;;-3.65;94.59
44663;BME280;30381;52.754;18.258;2023-04-04T23:51:12;101466.75;;;-3.68;94.84
44663;BME280;30381;52.754;18.258;2023-04-04T23:53:41;101464.54;;;-3.71;94.84
44663;BME280;30381;52.754;18.258;2023-04-04T23:56:08;101460.39;;;-3.74;95.10
44663;BME280;30381;52.754;18.258;2023-04-04T23:58:37;101459.17;;;-3.76;95.37
